sensor_id;sensor_type;location;lat;lon;timestamp;P1;durP1;ratioP1;P2;durP2;ratioP2
1731;SDS011;863;52.268;8.834;2022-09-12T00:01:45;7.53;;;6.87;;
1731;SDS011;863;52.268;8.834;2022-09-12T00:04:11;8.43;;;7.63;;
1731;SDS011;863;52.268;8.834;2022-09-12T00:06:36;8.10;;;7.40;;
1731;SDS011;863;52.268;8.834;2022-09-12T00:09:11;9.10;;;8.20;;
1731;SDS011;863;52.268;8.834;2022-09-12T00:11:38;8.60;;;7.67;;
1731;SDS011;863;52.268;8.834;2022-09-12T00:14:04;8.20;;;7.50;;
1731;SDS011;863;52.268;8.834;2022-09-12T00:16:31;8.73;;;7.93;;
1731;SDS011;863;52.268;8.834;2022-09-12T00:18:56;9.13;;;8.23;;
1731;SDS011;863;52.268;8.834;2022-09-12T00:21:22;8.37;;;7.67;;
1731;SDS011;863;52.268;8.834;2022-09-12T00:23:47;9.97;;;9.07;;
1731;SDS011;863;52.268;8.834;2022-09-12T00:26:12;9.17;;;8.37;;
1731;SDS011;863;52.268;8.834;2022-09-12T00:28:39;9.03;;;8.23;;
1731;SDS011;863;52.268;8.834;2022-09-12T00:31:08;8.93;;;8.03;;
1731;SDS011;863;52.268;8.834;2022-09-12T00:33:34;8.43;;;7.63;;
1731;SDS011;863;52.268;8.834;2022-09-12T00:36:02;8.17;;;7.37;;
1731;SDS011;863;52.268;8.834;2022-09-12T00:38:28;9.10;;;8.20;;
1731;SDS011;863;52.268;8.834;2022-09-12T00:40:53;10.35;;;9.35;;
1731;SDS011;863;52.268;8.834;2022-09-12T00:43:38;10.67;;;9.67;;
1731;SDS011;863;52.268;8.834;2022-09-12T00:46:12;10.10;;;8.93;;
1731;SDS011;863;52.268;8.834;2022-09-12T00:48:45;7.87;;;7.07;;
1731;SDS011;863;52.268;8.834;2022-09-12T00:51:11;7.03;;;6.43;;
1731;SDS011;863;52.268;8.834;2022-09-12T00:53:37;8.07;;;7.27;;
1731;SDS011;863;52.268;8.834;2022-09-12T00:56:03;8.60;;;7.80;;
1731;SDS011;863;52.268;8.834;2022-09-12T00:58:29;10.23;;;9.23;;
1731;SDS011;863;52.268;8.834;2022-09-12T01:00:56;9.17;;;8.20;;
1731;SDS011;863;52.268;8.834;2022-09-12T01:03:22;9.63;;;8.63;;
1731;SDS011;863;52.268;8.834;2022-09-12T01:06:01;9.13;;;8.30;;
1731;SDS011;863;52.268;8.834;2022-09-12T01:08:29;9.47;;;8.40;;
1731;SDS011;863;52.268;8.834;2022-09-12T01:10:56;8.97;;;8.07;;
1731;SDS011;863;52.268;8.834;2022-09-12T01:13:22;10.57;;;9.50;;
1731;SDS011;863;52.268;8.834;2022-09-12T01:15:47;10.90;;;9.07;;
1731;SDS011;863;52.268;8.834;2022-09-12T01:18:15;11.13;;;9.63;;
1731;SDS011;863;52.268;8.834;2022-09-12T01:20:45;9.23;;;8.33;;
1731;SDS011;863;52.268;8.834;2022-09-12T01:31:26;10.17;;;8.60;;
1731;SDS011;863;52.268;8.834;2022-09-12T01:33:55;10.20;;;9.20;;
1731;SDS011;863;52.268;8.834;2022-09-12T01:39:00;9.40;;;8.50;;
1731;SDS011;863;52.268;8.834;2022-09-12T01:41:27;10.10;;;9.10;;
1731;SDS011;863;52.268;8.834;2022-09-12T01:44:06;11.87;;;10.70;;
1731;SDS011;863;52.268;8.834;2022-09-12T01:52:04;10.43;;;8.90;;
1731;SDS011;863;52.268;8.834;2022-09-12T01:54:40;9.73;;;8.73;;
1731;SDS011;863;52.268;8.834;2022-09-12T01:57:09;10.37;;;9.37;;
1731;SDS011;863;52.268;8.834;2022-09-12T01:59:37;8.83;;;8.03;;
1731;SDS011;863;52.268;8.834;2022-09-12T02:02:11;10.60;;;9.50;;
1731;SDS011;863;52.268;8.834;2022-09-12T02:04:45;12.50;;;11.20;;
1731;SDS011;863;52.268;8.834;2022-09-12T02:07:17;9.77;;;8.80;;
1731;SDS011;863;52.268;8.834;2022-09-12T02:09:44;10.43;;;9.47;;
1731;SDS011;863;52.268;8.834;2022-09-12T02:12:11;10.30;;;8.90;;
1731;SDS011;863;52.268;8.834;2022-09-12T02:14:39;11.60;;;9.60;;
1731;SDS011;863;52.268;8.834;2022-09-12T02:17:05;10.40;;;9.40;;
1731;SDS011;863;52.268;8.834;2022-09-12T02:19:33;10.53;;;9.53;;
1731;SDS011;863;52.268;8.834;2022-09-12T02:22:00;11.10;;;10.00;;
1731;SDS011;863;52.268;8.834;2022-09-12T02:24:27;11.30;;;10.20;;
1731;SDS011;863;52.268;8.834;2022-09-12T02:26:58;10.13;;;9.10;;
1731;SDS011;863;52.268;8.834;2022-09-12T02:29:24;11.13;;;10.03;;
1731;SDS011;863;52.268;8.834;2022-09-12T02:31:53;12.20;;;10.90;;
1731;SDS011;863;52.268;8.834;2022-09-12T02:34:38;10.47;;;9.50;;
1731;SDS011;863;52.268;8.834;2022-09-12T02:37:26;11.00;;;9.80;;
1731;SDS011;863;52.268;8.834;2022-09-12T02:39:54;9.50;;;8.60;;
1731;SDS011;863;52.268;8.834;2022-09-12T02:42:19;11.17;;;10.07;;
1731;SDS011;863;52.268;8.834;2022-09-12T02:44:45;12.93;;;10.00;;
1731;SDS011;863;52.268;8.834;2022-09-12T02:47:13;10.40;;;9.50;;
1731;SDS011;863;52.268;8.834;2022-09-12T02:49:39;10.80;;;9.80;;
1731;SDS011;863;52.268;8.834;2022-09-12T02:52:04;11.50;;;10.40;;
1731;SDS011;863;52.268;8.834;2022-09-12T02:54:31;10.83;;;9.73;;
1731;SDS011;863;52.268;8.834;2022-09-12T02:56:56;10.53;;;9.47;;
1731;SDS011;863;52.268;8.834;2022-09-12T02:59:21;11.17;;;10.13;;
1731;SDS011;863;52.268;8.834;2022-09-12T03:02:05;10.90;;;9.90;;
1731;SDS011;863;52.268;8.834;2022-09-12T03:07:12;9.93;;;8.50;;
1731;SDS011;863;52.268;8.834;2022-09-12T03:09:54;10.33;;;9.30;;
1731;SDS011;863;52.268;8.834;2022-09-12T03:17:41;10.30;;;9.30;;
1731;SDS011;863;52.268;8.834;2022-09-12T03:20:51;10.67;;;9.57;;
1731;SDS011;863;52.268;8.834;2022-09-12T03:23:03;10.97;;;9.50;;
1731;SDS011;863;52.268;8.834;2022-09-12T03:26:15;10.30;;;9.30;;
1731;SDS011;863;52.268;8.834;2022-09-12T03:28:15;10.43;;;9.33;;
1731;SDS011;863;52.268;8.834;2022-09-12T03:30:47;9.60;;;8.60;;
1731;SDS011;863;52.268;8.834;2022-09-12T03:33:14;10.27;;;9.23;;
1731;SDS011;863;52.268;8.834;2022-09-12T03:35:39;10.57;;;9.37;;
1731;SDS011;863;52.268;8.834;2022-09-12T03:38:05;10.97;;;9.23;;
1731;SDS011;863;52.268;8.834;2022-09-12T03:40:32;10.33;;;8.90;;
1731;SDS011;863;52.268;8.834;2022-09-12T03:42:57;9.50;;;8.27;;
1731;SDS011;863;52.268;8.834;2022-09-12T03:45:22;10.60;;;9.43;;
1731;SDS011;863;52.268;8.834;2022-09-12T03:47:47;11.20;;;9.80;;
1731;SDS011;863;52.268;8.834;2022-09-12T03:50:12;9.90;;;8.90;;
1731;SDS011;863;52.268;8.834;2022-09-12T03:52:37;10.47;;;9.37;;
1731;SDS011;863;52.268;8.834;2022-09-12T03:55:03;10.35;;;9.35;;
1731;SDS011;863;52.268;8.834;2022-09-12T03:57:28;10.23;;;8.83;;
1731;SDS011;863;52.268;8.834;2022-09-12T03:59:53;9.83;;;8.83;;
1731;SDS011;863;52.268;8.834;2022-09-12T04:02:18;9.50;;;8.50;;
1731;SDS011;863;52.268;8.834;2022-09-12T04:04:44;10.05;;;8.50;;
1731;SDS011;863;52.268;8.834;2022-09-12T04:07:12;10.50;;;9.40;;
1731;SDS011;863;52.268;8.834;2022-09-12T04:09:38;11.80;;;9.10;;
1731;SDS011;863;52.268;8.834;2022-09-12T04:12:03;9.53;;;8.63;;
1731;SDS011;863;52.268;8.834;2022-09-12T04:14:28;12.77;;;10.40;;
1731;SDS011;863;52.268;8.834;2022-09-12T04:16:53;10.82;;;8.13;;
1731;SDS011;863;52.268;8.834;2022-09-12T04:19:18;9.83;;;8.90;;
1731;SDS011;863;52.268;8.834;2022-09-12T04:21:44;10.82;;;8.95;;
1731;SDS011;863;52.268;8.834;2022-09-12T04:24:09;8.83;;;7.80;;
1731;SDS011;863;52.268;8.834;2022-09-12T04:26:34;10.40;;;9.30;;
1731;SDS011;863;52.268;8.834;2022-09-12T04:28:59;9.80;;;8.53;;
1731;SDS011;863;52.268;8.834;2022-09-12T04:31:25;10.53;;;9.50;;
1731;SDS011;863;52.268;8.834;2022-09-12T04:33:57;9.23;;;8.33;;
1731;SDS011;863;52.268;8.834;2022-09-12T04:36:22;14.77;;;9.30;;
1731;SDS011;863;52.268;8.834;2022-09-12T04:38:48;10.77;;;9.77;;
1731;SDS011;863;52.268;8.834;2022-09-12T04:41:14;9.80;;;8.80;;
1731;SDS011;863;52.268;8.834;2022-09-12T04:43:40;8.93;;;8.07;;
1731;SDS011;863;52.268;8.834;2022-09-12T04:46:06;8.97;;;8.13;;
1731;SDS011;863;52.268;8.834;2022-09-12T04:48:31;9.57;;;8.60;;
1731;SDS011;863;52.268;8.834;2022-09-12T04:51:04;10.05;;;9.10;;
1731;SDS011;863;52.268;8.834;2022-09-12T04:53:29;9.50;;;8.60;;
1731;SDS011;863;52.268;8.834;2022-09-12T04:55:55;11.00;;;8.93;;
1731;SDS011;863;52.268;8.834;2022-09-12T04:58:20;11.00;;;9.68;;
1731;SDS011;863;52.268;8.834;2022-09-12T05:00:45;10.02;;;9.02;;
1731;SDS011;863;52.268;8.834;2022-09-12T05:03:10;10.73;;;9.17;;
1731;SDS011;863;52.268;8.834;2022-09-12T05:05:35;10.37;;;9.33;;
1731;SDS011;863;52.268;8.834;2022-09-12T05:08:00;9.02;;;8.20;;
1731;SDS011;863;52.268;8.834;2022-09-12T05:10:26;9.80;;;8.90;;
1731;SDS011;863;52.268;8.834;2022-09-12T05:12:52;10.33;;;9.03;;
1731;SDS011;863;52.268;8.834;2022-09-12T05:15:17;10.37;;;9.40;;
1731;SDS011;863;52.268;8.834;2022-09-12T05:17:42;9.73;;;8.83;;
1731;SDS011;863;52.268;8.834;2022-09-12T05:20:08;9.80;;;8.80;;
1731;SDS011;863;52.268;8.834;2022-09-12T05:22:33;10.00;;;9.00;;
1731;SDS011;863;52.268;8.834;2022-09-12T05:24:58;9.33;;;8.43;;
1731;SDS011;863;52.268;8.834;2022-09-12T05:27:23;8.40;;;7.60;;
1731;SDS011;863;52.268;8.834;2022-09-12T05:29:49;10.27;;;8.80;;
1731;SDS011;863;52.268;8.834;2022-09-12T05:32:15;9.27;;;8.37;;
1731;SDS011;863;52.268;8.834;2022-09-12T05:34:40;8.82;;;7.90;;
1731;SDS011;863;52.268;8.834;2022-09-12T05:37:05;9.32;;;8.43;;
1731;SDS011;863;52.268;8.834;2022-09-12T05:39:30;9.53;;;8.60;;
1731;SDS011;863;52.268;8.834;2022-09-12T05:41:55;8.63;;;7.80;;
1731;SDS011;863;52.268;8.834;2022-09-12T05:44:20;8.30;;;7.30;;
1731;SDS011;863;52.268;8.834;2022-09-12T05:46:46;8.57;;;7.77;;
1731;SDS011;863;52.268;8.834;2022-09-12T05:49:14;8.73;;;7.57;;
1731;SDS011;863;52.268;8.834;2022-09-12T05:51:40;8.80;;;8.00;;
1731;SDS011;863;52.268;8.834;2022-09-12T05:54:06;7.67;;;6.97;;
1731;SDS011;863;52.268;8.834;2022-09-12T05:56:33;8.30;;;7.53;;
1731;SDS011;863;52.268;8.834;2022-09-12T05:59:02;8.73;;;7.90;;
1731;SDS011;863;52.268;8.834;2022-09-12T06:01:29;8.00;;;7.30;;
1731;SDS011;863;52.268;8.834;2022-09-12T06:03:55;8.37;;;7.57;;
1731;SDS011;863;52.268;8.834;2022-09-12T06:06:22;7.93;;;7.23;;
1731;SDS011;863;52.268;8.834;2022-09-12T06:08:49;7.50;;;6.90;;
1731;SDS011;863;52.268;8.834;2022-09-12T06:11:15;8.43;;;7.73;;
1731;SDS011;863;52.268;8.834;2022-09-12T06:13:41;9.90;;;8.67;;
1731;SDS011;863;52.268;8.834;2022-09-12T06:16:07;8.47;;;7.67;;
1731;SDS011;863;52.268;8.834;2022-09-12T06:18:33;8.97;;;8.07;;
1731;SDS011;863;52.268;8.834;2022-09-12T06:21:09;7.80;;;7.10;;
1731;SDS011;863;52.268;8.834;2022-09-12T06:23:35;8.70;;;8.00;;
1731;SDS011;863;52.268;8.834;2022-09-12T06:26:01;8.43;;;7.63;;
1731;SDS011;863;52.268;8.834;2022-09-12T06:28:26;8.13;;;7.40;;
1731;SDS011;863;52.268;8.834;2022-09-12T06:30:51;10.83;;;8.50;;
1731;SDS011;863;52.268;8.834;2022-09-12T06:33:17;7.80;;;7.10;;
1731;SDS011;863;52.268;8.834;2022-09-12T06:35:42;8.40;;;7.60;;
1731;SDS011;863;52.268;8.834;2022-09-12T06:38:07;8.57;;;7.73;;
1731;SDS011;863;52.268;8.834;2022-09-12T06:40:33;7.30;;;6.60;;
1731;SDS011;863;52.268;8.834;2022-09-12T06:42:58;7.27;;;6.67;;
1731;SDS011;863;52.268;8.834;2022-09-12T06:45:23;6.73;;;6.13;;
1731;SDS011;863;52.268;8.834;2022-09-12T06:47:50;8.03;;;7.33;;
1731;SDS011;863;52.268;8.834;2022-09-12T06:50:15;11.30;;;7.30;;
1731;SDS011;863;52.268;8.834;2022-09-12T06:52:40;7.57;;;6.80;;
1731;SDS011;863;52.268;8.834;2022-09-12T06:55:05;6.30;;;5.30;;
1731;SDS011;863;52.268;8.834;2022-09-12T06:57:31;6.07;;;5.57;;
1731;SDS011;863;52.268;8.834;2022-09-12T07:00:00;5.67;;;5.17;;
1731;SDS011;863;52.268;8.834;2022-09-12T07:02:26;6.07;;;4.73;;
1731;SDS011;863;52.268;8.834;2022-09-12T07:04:51;5.37;;;4.77;;
1731;SDS011;863;52.268;8.834;2022-09-12T07:07:16;5.40;;;4.90;;
1731;SDS011;863;52.268;8.834;2022-09-12T07:09:41;5.60;;;4.80;;
1731;SDS011;863;52.268;8.834;2022-09-12T07:12:07;5.20;;;4.70;;
1731;SDS011;863;52.268;8.834;2022-09-12T07:14:32;5.40;;;4.17;;
1731;SDS011;863;52.268;8.834;2022-09-12T07:16:57;4.97;;;4.47;;
1731;SDS011;863;52.268;8.834;2022-09-12T07:19:22;5.40;;;4.50;;
1731;SDS011;863;52.268;8.834;2022-09-12T07:21:48;4.20;;;3.70;;
1731;SDS011;863;52.268;8.834;2022-09-12T07:24:13;4.73;;;4.13;;
1731;SDS011;863;52.268;8.834;2022-09-12T07:26:39;4.70;;;4.30;;
1731;SDS011;863;52.268;8.834;2022-09-12T07:29:04;4.90;;;4.50;;
1731;SDS011;863;52.268;8.834;2022-09-12T07:31:29;4.77;;;3.70;;
1731;SDS011;863;52.268;8.834;2022-09-12T07:33:55;4.47;;;4.07;;
1731;SDS011;863;52.268;8.834;2022-09-12T07:36:21;4.20;;;3.27;;
1731;SDS011;863;52.268;8.834;2022-09-12T07:38:47;4.93;;;4.43;;
1731;SDS011;863;52.268;8.834;2022-09-12T07:41:16;4.07;;;3.70;;
1731;SDS011;863;52.268;8.834;2022-09-12T07:43:42;3.53;;;3.20;;
1731;SDS011;863;52.268;8.834;2022-09-12T07:46:07;4.00;;;3.60;;
1731;SDS011;863;52.268;8.834;2022-09-12T07:48:33;4.33;;;3.93;;
1731;SDS011;863;52.268;8.834;2022-09-12T07:50:59;3.80;;;3.50;;
1731;SDS011;863;52.268;8.834;2022-09-12T07:53:25;4.40;;;4.00;;
1731;SDS011;863;52.268;8.834;2022-09-12T07:55:54;4.23;;;3.90;;
1731;SDS011;863;52.268;8.834;2022-09-12T07:58:19;4.50;;;4.10;;
1731;SDS011;863;52.268;8.834;2022-09-12T08:00:45;4.07;;;3.70;;
1731;SDS011;863;52.268;8.834;2022-09-12T08:03:10;4.10;;;3.70;;
1731;SDS011;863;52.268;8.834;2022-09-12T08:05:35;4.40;;;3.90;;
1731;SDS011;863;52.268;8.834;2022-09-12T08:08:01;4.90;;;4.40;;
1731;SDS011;863;52.268;8.834;2022-09-12T08:10:26;4.23;;;3.83;;
1731;SDS011;863;52.268;8.834;2022-09-12T08:12:51;4.60;;;3.60;;
1731;SDS011;863;52.268;8.834;2022-09-12T08:15:16;4.65;;;4.10;;
1731;SDS011;863;52.268;8.834;2022-09-12T08:17:41;4.70;;;4.30;;
1731;SDS011;863;52.268;8.834;2022-09-12T08:20:07;4.30;;;3.90;;
1731;SDS011;863;52.268;8.834;2022-09-12T08:22:33;4.13;;;3.73;;
1731;SDS011;863;52.268;8.834;2022-09-12T08:24:58;4.03;;;3.73;;
1731;SDS011;863;52.268;8.834;2022-09-12T08:27:23;4.03;;;3.33;;
1731;SDS011;863;52.268;8.834;2022-09-12T08:29:49;3.73;;;3.33;;
1731;SDS011;863;52.268;8.834;2022-09-12T08:32:14;3.70;;;3.23;;
1731;SDS011;863;52.268;8.834;2022-09-12T08:34:39;4.37;;;3.60;;
1731;SDS011;863;52.268;8.834;2022-09-12T08:37:04;4.43;;;4.03;;
1731;SDS011;863;52.268;8.834;2022-09-12T08:39:29;3.40;;;3.10;;
1731;SDS011;863;52.268;8.834;2022-09-12T08:42:00;3.27;;;2.97;;
1731;SDS011;863;52.268;8.834;2022-09-12T08:52:12;4.00;;;3.60;;
1731;SDS011;863;52.268;8.834;2022-09-12T08:54:39;4.50;;;3.23;;
1731;SDS011;863;52.268;8.834;2022-09-12T08:57:10;3.23;;;2.90;;
1731;SDS011;863;52.268;8.834;2022-09-12T08:59:40;3.20;;;2.90;;
1731;SDS011;863;52.268;8.834;2022-09-12T09:04:50;3.10;;;2.80;;
1731;SDS011;863;52.268;8.834;2022-09-12T09:17:50;3.60;;;3.30;;
1731;SDS011;863;52.268;8.834;2022-09-12T09:20:27;3.00;;;2.73;;
1731;SDS011;863;52.268;8.834;2022-09-12T09:22:56;3.07;;;2.87;;
1731;SDS011;863;52.268;8.834;2022-09-12T09:25:23;3.43;;;3.13;;
1731;SDS011;863;52.268;8.834;2022-09-12T09:27:54;3.77;;;2.87;;
1731;SDS011;863;52.268;8.834;2022-09-12T09:30:20;3.30;;;3.00;;
1731;SDS011;863;52.268;8.834;2022-09-12T09:32:48;3.38;;;3.08;;
1731;SDS011;863;52.268;8.834;2022-09-12T09:35:20;3.60;;;2.90;;
1731;SDS011;863;52.268;8.834;2022-09-12T09:40:22;5.63;;;2.83;;
1731;SDS011;863;52.268;8.834;2022-09-12T09:45:20;3.13;;;2.70;;
1731;SDS011;863;52.268;8.834;2022-09-12T09:47:49;3.47;;;2.70;;
1731;SDS011;863;52.268;8.834;2022-09-12T09:50:16;2.73;;;2.43;;
1731;SDS011;863;52.268;8.834;2022-09-12T09:52:42;3.10;;;2.80;;
1731;SDS011;863;52.268;8.834;2022-09-12T09:55:11;3.20;;;3.00;;
1731;SDS011;863;52.268;8.834;2022-09-12T09:57:38;2.97;;;2.77;;
1731;SDS011;863;52.268;8.834;2022-09-12T10:05:29;2.50;;;2.30;;
1731;SDS011;863;52.268;8.834;2022-09-12T10:07:55;2.60;;;2.40;;
1731;SDS011;863;52.268;8.834;2022-09-12T10:10:20;3.40;;;3.07;;
1731;SDS011;863;52.268;8.834;2022-09-12T10:12:47;2.50;;;2.30;;
1731;SDS011;863;52.268;8.834;2022-09-12T10:15:17;2.87;;;2.57;;
1731;SDS011;863;52.268;8.834;2022-09-12T10:17:43;3.23;;;2.57;;
1731;SDS011;863;52.268;8.834;2022-09-12T10:22:52;2.63;;;2.13;;
1731;SDS011;863;52.268;8.834;2022-09-12T10:25:17;2.73;;;2.53;;
1731;SDS011;863;52.268;8.834;2022-09-12T10:27:43;2.53;;;2.33;;
1731;SDS011;863;52.268;8.834;2022-09-12T10:30:16;2.07;;;1.80;;
1731;SDS011;863;52.268;8.834;2022-09-12T10:32:45;2.33;;;2.13;;
1731;SDS011;863;52.268;8.834;2022-09-12T10:40:26;2.60;;;2.40;;
1731;SDS011;863;52.268;8.834;2022-09-12T10:42:56;2.90;;;2.30;;
1731;SDS011;863;52.268;8.834;2022-09-12T10:45:29;2.67;;;2.47;;
1731;SDS011;863;52.268;8.834;2022-09-12T10:47:56;2.60;;;2.40;;
1731;SDS011;863;52.268;8.834;2022-09-12T10:50:26;2.23;;;2.03;;
1731;SDS011;863;52.268;8.834;2022-09-12T10:52:52;2.40;;;2.20;;
1731;SDS011;863;52.268;8.834;2022-09-12T10:55:19;2.67;;;2.47;;
1731;SDS011;863;52.268;8.834;2022-09-12T11:00:16;2.17;;;1.97;;
1731;SDS011;863;52.268;8.834;2022-09-12T11:05:54;2.27;;;1.90;;
1731;SDS011;863;52.268;8.834;2022-09-12T11:29:17;1.80;;;1.70;;
1731;SDS011;863;52.268;8.834;2022-09-12T11:34:09;2.03;;;1.80;;
1731;SDS011;863;52.268;8.834;2022-09-12T11:37:02;2.10;;;1.90;;
1731;SDS011;863;52.268;8.834;2022-09-12T11:39:42;1.70;;;1.60;;
1731;SDS011;863;52.268;8.834;2022-09-12T11:42:11;2.27;;;1.60;;
1731;SDS011;863;52.268;8.834;2022-09-12T11:44:42;1.50;;;1.40;;
1731;SDS011;863;52.268;8.834;2022-09-12T11:47:10;3.23;;;1.63;;
1731;SDS011;863;52.268;8.834;2022-09-12T11:52:14;2.40;;;1.67;;
1731;SDS011;863;52.268;8.834;2022-09-12T11:59:53;2.20;;;2.00;;
1731;SDS011;863;52.268;8.834;2022-09-12T12:02:25;2.30;;;2.10;;
1731;SDS011;863;52.268;8.834;2022-09-12T12:05:03;2.37;;;2.17;;
1731;SDS011;863;52.268;8.834;2022-09-12T12:07:42;1.73;;;1.63;;
1731;SDS011;863;52.268;8.834;2022-09-12T12:12:48;2.93;;;2.37;;
1731;SDS011;863;52.268;8.834;2022-09-12T12:15:14;2.20;;;2.00;;
1731;SDS011;863;52.268;8.834;2022-09-12T12:17:40;2.33;;;2.13;;
1731;SDS011;863;52.268;8.834;2022-09-12T12:20:05;2.60;;;2.33;;
1731;SDS011;863;52.268;8.834;2022-09-12T12:22:33;2.80;;;2.27;;
1731;SDS011;863;52.268;8.834;2022-09-12T12:28:08;2.27;;;2.07;;
1731;SDS011;863;52.268;8.834;2022-09-12T12:32:58;2.20;;;2.00;;
1731;SDS011;863;52.268;8.834;2022-09-12T12:35:35;1.67;;;1.53;;
1731;SDS011;863;52.268;8.834;2022-09-12T12:38:02;2.10;;;1.80;;
1731;SDS011;863;52.268;8.834;2022-09-12T12:40:28;1.93;;;1.73;;
1731;SDS011;863;52.268;8.834;2022-09-12T12:42:57;2.33;;;2.13;;
1731;SDS011;863;52.268;8.834;2022-09-12T12:47:54;2.20;;;2.00;;
1731;SDS011;863;52.268;8.834;2022-09-12T12:50:21;2.23;;;2.03;;
1731;SDS011;863;52.268;8.834;2022-09-12T12:52:53;3.03;;;1.90;;
1731;SDS011;863;52.268;8.834;2022-09-12T12:57:53;2.00;;;1.80;;
1731;SDS011;863;52.268;8.834;2022-09-12T13:05:26;2.10;;;1.90;;
1731;SDS011;863;52.268;8.834;2022-09-12T13:07:53;1.70;;;1.60;;
1731;SDS011;863;52.268;8.834;2022-09-12T13:10:21;1.93;;;1.73;;
1731;SDS011;863;52.268;8.834;2022-09-12T13:12:47;1.93;;;1.67;;
1731;SDS011;863;52.268;8.834;2022-09-12T13:17:58;2.40;;;2.20;;
1731;SDS011;863;52.268;8.834;2022-09-12T13:20:27;2.20;;;2.00;;
1731;SDS011;863;52.268;8.834;2022-09-12T13:22:54;2.53;;;2.00;;
1731;SDS011;863;52.268;8.834;2022-09-12T13:30:33;2.50;;;2.30;;
1731;SDS011;863;52.268;8.834;2022-09-12T13:33:02;1.70;;;1.60;;
1731;SDS011;863;52.268;8.834;2022-09-12T13:35:35;2.07;;;1.90;;
1731;SDS011;863;52.268;8.834;2022-09-12T13:40:38;2.33;;;2.00;;
1731;SDS011;863;52.268;8.834;2022-09-12T13:43:11;1.80;;;1.70;;
1731;SDS011;863;52.268;8.834;2022-09-12T13:45:38;1.70;;;1.60;;
1731;SDS011;863;52.268;8.834;2022-09-12T13:48:04;2.70;;;2.00;;
1731;SDS011;863;52.268;8.834;2022-09-12T13:50:31;4.07;;;2.07;;
1731;SDS011;863;52.268;8.834;2022-09-12T13:52:58;2.50;;;2.10;;
1731;SDS011;863;52.268;8.834;2022-09-12T13:57:54;3.17;;;2.00;;
1731;SDS011;863;52.268;8.834;2022-09-12T14:00:20;2.30;;;2.10;;
1731;SDS011;863;52.268;8.834;2022-09-12T14:02:46;2.00;;;1.80;;
1731;SDS011;863;52.268;8.834;2022-09-12T14:05:22;2.10;;;1.90;;
1731;SDS011;863;52.268;8.834;2022-09-12T14:07:52;2.20;;;2.00;;
1731;SDS011;863;52.268;8.834;2022-09-12T14:10:39;2.30;;;2.10;;
1731;SDS011;863;52.268;8.834;2022-09-12T14:13:12;2.20;;;1.90;;
1731;SDS011;863;52.268;8.834;2022-09-12T14:15:43;2.03;;;1.87;;
1731;SDS011;863;52.268;8.834;2022-09-12T14:18:18;2.63;;;2.20;;
1731;SDS011;863;52.268;8.834;2022-09-12T14:20:45;1.90;;;1.70;;
1731;SDS011;863;52.268;8.834;2022-09-12T14:23:19;3.50;;;1.90;;
1731;SDS011;863;52.268;8.834;2022-09-12T14:25:45;2.50;;;2.00;;
1731;SDS011;863;52.268;8.834;2022-09-12T14:28:12;2.27;;;1.90;;
1731;SDS011;863;52.268;8.834;2022-09-12T14:30:38;2.53;;;2.33;;
1731;SDS011;863;52.268;8.834;2022-09-12T14:35:43;2.93;;;2.10;;
1731;SDS011;863;52.268;8.834;2022-09-12T14:40:45;2.10;;;1.90;;
1731;SDS011;863;52.268;8.834;2022-09-12T14:45:51;2.10;;;1.90;;
1731;SDS011;863;52.268;8.834;2022-09-12T14:48:17;2.20;;;2.00;;
1731;SDS011;863;52.268;8.834;2022-09-12T14:50:42;2.10;;;1.90;;
1731;SDS011;863;52.268;8.834;2022-09-12T14:55:43;2.10;;;1.90;;
1731;SDS011;863;52.268;8.834;2022-09-12T15:00:57;2.17;;;1.93;;
1731;SDS011;863;52.268;8.834;2022-09-12T15:03:24;2.20;;;2.00;;
1731;SDS011;863;52.268;8.834;2022-09-12T15:05:50;2.30;;;2.10;;
1731;SDS011;863;52.268;8.834;2022-09-12T15:08:15;1.67;;;1.57;;
1731;SDS011;863;52.268;8.834;2022-09-12T15:10:40;2.27;;;2.07;;
1731;SDS011;863;52.268;8.834;2022-09-12T15:15:34;1.90;;;1.80;;
1731;SDS011;863;52.268;8.834;2022-09-12T15:18:00;2.40;;;1.97;;
1731;SDS011;863;52.268;8.834;2022-09-12T15:20:25;2.33;;;2.13;;
1731;SDS011;863;52.268;8.834;2022-09-12T15:22:50;2.27;;;2.07;;
1731;SDS011;863;52.268;8.834;2022-09-12T15:25:16;2.87;;;1.97;;
1731;SDS011;863;52.268;8.834;2022-09-12T15:27:41;2.27;;;2.07;;
1731;SDS011;863;52.268;8.834;2022-09-12T15:30:07;2.10;;;1.90;;
1731;SDS011;863;52.268;8.834;2022-09-12T15:32:34;2.10;;;1.90;;
1731;SDS011;863;52.268;8.834;2022-09-12T15:34:59;2.17;;;1.90;;
1731;SDS011;863;52.268;8.834;2022-09-12T15:37:24;2.40;;;1.70;;
1731;SDS011;863;52.268;8.834;2022-09-12T15:39:50;2.60;;;2.10;;
1731;SDS011;863;52.268;8.834;2022-09-12T15:42:15;2.53;;;1.97;;
1731;SDS011;863;52.268;8.834;2022-09-12T15:44:41;2.63;;;2.43;;
1731;SDS011;863;52.268;8.834;2022-09-12T15:47:13;1.93;;;1.83;;
1731;SDS011;863;52.268;8.834;2022-09-12T15:49:39;3.40;;;1.97;;
1731;SDS011;863;52.268;8.834;2022-09-12T15:52:04;2.30;;;1.80;;
1731;SDS011;863;52.268;8.834;2022-09-12T15:54:30;2.00;;;1.77;;
1731;SDS011;863;52.268;8.834;2022-09-12T15:56:55;2.50;;;1.80;;
1731;SDS011;863;52.268;8.834;2022-09-12T15:59:20;2.90;;;2.23;;
1731;SDS011;863;52.268;8.834;2022-09-12T16:01:45;2.47;;;1.97;;
1731;SDS011;863;52.268;8.834;2022-09-12T16:04:21;2.20;;;2.00;;
1731;SDS011;863;52.268;8.834;2022-09-12T16:06:47;3.20;;;1.70;;
1731;SDS011;863;52.268;8.834;2022-09-12T16:09:12;4.70;;;1.90;;
1731;SDS011;863;52.268;8.834;2022-09-12T16:11:38;2.70;;;2.07;;
1731;SDS011;863;52.268;8.834;2022-09-12T16:14:03;3.13;;;2.10;;
1731;SDS011;863;52.268;8.834;2022-09-12T16:16:28;2.30;;;1.90;;
1731;SDS011;863;52.268;8.834;2022-09-12T16:18:53;2.03;;;1.70;;
1731;SDS011;863;52.268;8.834;2022-09-12T16:21:19;2.10;;;1.90;;
1731;SDS011;863;52.268;8.834;2022-09-12T16:23:44;2.37;;;2.10;;
1731;SDS011;863;52.268;8.834;2022-09-12T16:26:10;5.00;;;2.20;;
1731;SDS011;863;52.268;8.834;2022-09-12T16:28:35;3.93;;;2.03;;
1731;SDS011;863;52.268;8.834;2022-09-12T16:31:02;1.80;;;1.70;;
1731;SDS011;863;52.268;8.834;2022-09-12T16:33:28;3.10;;;2.00;;
1731;SDS011;863;52.268;8.834;2022-09-12T16:36:03;2.00;;;1.77;;
1731;SDS011;863;52.268;8.834;2022-09-12T16:38:29;1.80;;;1.60;;
1731;SDS011;863;52.268;8.834;2022-09-12T16:40:59;2.00;;;1.80;;
1731;SDS011;863;52.268;8.834;2022-09-12T16:43:24;2.60;;;2.33;;
1731;SDS011;863;52.268;8.834;2022-09-12T16:45:49;2.15;;;1.92;;
1731;SDS011;863;52.268;8.834;2022-09-12T16:48:14;2.15;;;2.00;;
1731;SDS011;863;52.268;8.834;2022-09-12T16:50:39;2.05;;;1.85;;
1731;SDS011;863;52.268;8.834;2022-09-12T16:53:05;2.60;;;2.10;;
1731;SDS011;863;52.268;8.834;2022-09-12T16:55:30;2.20;;;2.00;;
1731;SDS011;863;52.268;8.834;2022-09-12T16:57:56;2.27;;;2.07;;
1731;SDS011;863;52.268;8.834;2022-09-12T17:00:21;1.97;;;1.80;;
1731;SDS011;863;52.268;8.834;2022-09-12T17:02:46;2.40;;;1.93;;
1731;SDS011;863;52.268;8.834;2022-09-12T17:05:11;2.73;;;2.50;;
1731;SDS011;863;52.268;8.834;2022-09-12T17:07:36;2.80;;;2.60;;
1731;SDS011;863;52.268;8.834;2022-09-12T17:10:01;2.25;;;2.05;;
1731;SDS011;863;52.268;8.834;2022-09-12T17:12:27;2.23;;;2.03;;
1731;SDS011;863;52.268;8.834;2022-09-12T17:14:52;2.27;;;2.03;;
1731;SDS011;863;52.268;8.834;2022-09-12T17:17:18;2.30;;;2.10;;
1731;SDS011;863;52.268;8.834;2022-09-12T17:19:43;1.77;;;1.63;;
1731;SDS011;863;52.268;8.834;2022-09-12T17:22:08;2.20;;;1.90;;
1731;SDS011;863;52.268;8.834;2022-09-12T17:24:33;2.07;;;1.60;;
1731;SDS011;863;52.268;8.834;2022-09-12T17:26:59;3.63;;;1.80;;
1731;SDS011;863;52.268;8.834;2022-09-12T17:29:24;1.93;;;1.73;;
1731;SDS011;863;52.268;8.834;2022-09-12T17:31:49;2.87;;;1.70;;
1731;SDS011;863;52.268;8.834;2022-09-12T17:34:15;1.80;;;1.70;;
1731;SDS011;863;52.268;8.834;2022-09-12T17:36:41;1.80;;;1.60;;
1731;SDS011;863;52.268;8.834;2022-09-12T17:39:10;2.40;;;2.20;;
1731;SDS011;863;52.268;8.834;2022-09-12T17:41:35;1.97;;;1.77;;
1731;SDS011;863;52.268;8.834;2022-09-12T17:44:01;2.00;;;1.80;;
1731;SDS011;863;52.268;8.834;2022-09-12T17:46:36;2.10;;;1.80;;
1731;SDS011;863;52.268;8.834;2022-09-12T17:49:20;2.60;;;1.90;;
1731;SDS011;863;52.268;8.834;2022-09-12T17:51:46;4.67;;;2.40;;
1731;SDS011;863;52.268;8.834;2022-09-12T17:54:12;2.00;;;1.80;;
1731;SDS011;863;52.268;8.834;2022-09-12T17:56:39;2.83;;;2.20;;